createdAt,value
2022-09-23T00:00:37.752Z,85.37
2022-09-23T00:06:06.506Z,85.12
2022-09-23T00:11:11.137Z,85.15
2022-09-23T00:16:20.258Z,85.18
2022-09-23T00:21:23.221Z,85.09
2022-09-23T00:26:26.001Z,85.64
2022-09-23T00:31:28.906Z,85.32
2022-09-23T00:36:32.443Z,85.46
2022-09-23T00:41:36.176Z,85.54
2022-09-23T00:46:41.386Z,85.83
2022-09-23T00:51:50.382Z,85.64
2022-09-23T00:56:54.531Z,85.74
2022-09-23T01:01:58.045Z,85.97
2022-09-23T01:07:00.857Z,86.03
2022-09-23T01:12:23.434Z,85.85
2022-09-23T01:17:48.125Z,85.71
2022-09-23T01:23:00.161Z,85.72
2022-09-23T01:28:21.679Z,86.01
2022-09-23T01:33:51.779Z,86.08
2022-09-23T01:39:10.693Z,86.41
2022-09-23T01:44:16.320Z,86.35
2022-09-23T01:49:25.620Z,86.54
2022-09-23T01:55:13.552Z,86.46
2022-09-23T02:00:18.161Z,86.58
2022-09-23T02:05:43.850Z,86.70
2022-09-23T02:11:18.245Z,87.03
2022-09-23T02:16:41.729Z,86.83
2022-09-23T02:21:52.559Z,86.93
2022-09-23T02:26:59.901Z,86.58
2022-09-23T02:32:32.721Z,86.72
2022-09-23T02:37:58.226Z,86.77
2022-09-23T02:43:32.259Z,86.69
2022-09-23T02:49:04.377Z,86.65
2022-09-23T02:54:10.621Z,86.52
2022-09-23T02:59:13.488Z,86.44
2022-09-23T03:04:50.555Z,85.97
2022-09-23T03:10:22.614Z,85.59
2022-09-23T03:15:37.978Z,85.69
2022-09-23T03:20:59.170Z,85.77
2022-09-23T03:26:27.851Z,85.74
2022-09-23T03:31:32.483Z,85.77
2022-09-23T03:37:18.030Z,85.91
2022-09-23T03:42:30.175Z,85.68
2022-09-23T03:47:33.070Z,86.06
2022-09-23T03:52:35.849Z,86.03
2022-09-23T03:57:38.672Z,86.22
2022-09-23T04:02:41.716Z,86.48
2022-09-23T04:07:44.533Z,86.74
2022-09-23T04:12:47.276Z,86.81
2022-09-23T04:17:50.102Z,86.87
2022-09-23T04:22:52.905Z,87.08
2022-09-23T04:27:55.754Z,87.21
2022-09-23T04:32:58.498Z,87.33
2022-09-23T04:38:01.362Z,87.42
2022-09-23T04:43:04.220Z,87.48
2022-09-23T04:48:07.299Z,87.55
2022-09-23T04:53:10.424Z,87.20
2022-09-23T04:58:13.178Z,87.22
2022-09-23T05:03:16.648Z,87.49
2022-09-23T05:08:19.559Z,87.25
2022-09-23T05:13:22.455Z,87.05
2022-09-23T05:18:25.281Z,87.30
2022-09-23T05:23:28.476Z,87.41
2022-09-23T05:28:32.773Z,87.24
2022-09-23T05:33:36.634Z,87.43
2022-09-23T05:38:40.323Z,87.32
2022-09-23T05:43:43.397Z,87.52
2022-09-23T05:48:47.289Z,87.54
2022-09-23T05:53:54.230Z,87.57
2022-09-23T05:58:58.845Z,87.57
2022-09-23T06:04:03.281Z,88.20
2022-09-23T06:09:06.823Z,87.63
2022-09-23T06:14:12.587Z,87.38
2022-09-23T06:19:15.444Z,87.37
2022-09-23T06:24:22.113Z,87.30
2022-09-23T06:29:26.749Z,87.36
2022-09-23T06:34:30.786Z,87.01
2022-09-23T06:39:35.005Z,86.81
2022-09-23T06:44:37.813Z,86.17
2022-09-23T06:49:40.807Z,85.70
2022-09-23T06:54:43.555Z,85.44
2022-09-23T06:59:46.402Z,84.90
2022-09-23T07:04:49.253Z,84.64
2022-09-23T07:09:52.781Z,84.09
2022-09-23T07:14:57.329Z,83.48
2022-09-23T07:20:00.593Z,82.73
2022-09-23T07:25:03.912Z,83.17
2022-09-23T07:30:12.319Z,82.36
2022-09-23T07:35:19.660Z,80.88
2022-09-23T07:40:23.528Z,80.63
2022-09-23T07:45:27.562Z,79.61
2022-09-23T07:50:32.332Z,79.39
2022-09-23T07:55:35.922Z,77.55
2022-09-23T08:00:38.684Z,73.97
2022-09-23T08:05:42.129Z,72.04
2022-09-23T08:10:45.987Z,70.73
2022-09-23T08:15:53.248Z,68.89
2022-09-23T08:20:58.242Z,66.70
2022-09-23T08:26:03.392Z,63.51
2022-09-23T08:31:07.476Z,63.55
2022-09-23T08:36:11.518Z,63.24
2022-09-23T08:41:58.529Z,62.82
2022-09-23T08:47:26.157Z,61.38
2022-09-23T08:52:41.221Z,61.55
2022-09-23T08:58:26.389Z,60.04
2022-09-23T09:03:36.186Z,60.07
2022-09-23T09:08:41.416Z,59.57
2022-09-23T09:13:53.498Z,59.64
2022-09-23T09:18:58.987Z,60.73
2022-09-23T09:24:01.855Z,61.50
2022-09-23T09:34:47.837Z,59.41
2022-09-23T09:39:50.749Z,59.79
2022-09-23T09:45:05.045Z,58.82
2022-09-23T09:50:39.046Z,57.74
2022-09-23T09:55:42.017Z,57.62
2022-09-23T10:00:45.805Z,57.81
2022-09-23T10:05:52.382Z,56.54
2022-09-23T10:11:08.220Z,57.05
2022-09-23T10:16:11.127Z,54.51
2022-09-23T10:21:16.974Z,53.98
2022-09-23T10:26:50.912Z,53.41
2022-09-23T10:32:30.092Z,53.14
2022-09-23T10:37:37.018Z,52.66
2022-09-23T10:43:19.915Z,52.54
2022-09-23T10:48:28.527Z,52.01
2022-09-23T10:54:10.656Z,50.48
2022-09-23T10:59:40.169Z,49.45
2022-09-23T11:04:57.976Z,48.93
2022-09-23T11:10:47.106Z,48.51
2022-09-23T11:16:09.322Z,48.08
2022-09-23T11:21:59.234Z,47.80
2022-09-23T11:27:17.515Z,49.32
2022-09-23T11:32:31.146Z,48.18
2022-09-23T11:37:37.750Z,48.33
2022-09-23T11:43:07.673Z,48.33
2022-09-23T11:48:26.069Z,47.22
2022-09-23T11:53:44.524Z,46.99
2022-09-23T11:59:36.541Z,38.88
2022-09-23T12:04:56.961Z,35.80
2022-09-23T12:10:05.888Z,31.77
2022-09-23T12:15:54.585Z,30.66
2022-09-23T12:21:45.712Z,33.83
2022-09-23T12:26:42.616Z,38.25
2022-09-23T12:31:46.865Z,38.86
2022-09-23T12:36:52.794Z,32.48
2022-09-23T12:42:11.089Z,29.00
2022-09-23T12:47:28.076Z,25.26
2022-09-23T12:52:32.292Z,23.72
2022-09-23T12:57:35.048Z,23.36
2022-09-23T13:02:43.124Z,23.05
2022-09-23T13:07:47.814Z,23.79
2022-09-23T13:12:50.648Z,26.55
2022-09-23T13:17:53.493Z,28.60
2022-09-23T13:22:56.314Z,30.38
2022-09-23T13:28:01.741Z,32.32
2022-09-23T13:33:14.576Z,34.61
2022-09-23T13:38:29.762Z,36.06
2022-09-23T13:43:41.630Z,36.83
2022-09-23T13:48:46.376Z,37.34
2022-09-23T13:53:57.621Z,38.15
2022-09-23T13:59:47.104Z,38.73
2022-09-23T14:04:51.021Z,39.00
2022-09-23T14:09:55.460Z,33.01
2022-09-23T14:14:58.196Z,28.21
2022-09-23T14:20:01.224Z,28.06
2022-09-23T14:25:04.250Z,31.26
2022-09-23T14:30:19.000Z,31.99
2022-09-23T14:35:27.070Z,30.88
2022-09-23T14:40:51.095Z,29.79
2022-09-23T14:46:00.098Z,28.95
2022-09-23T14:51:06.239Z,26.50
2022-09-23T14:56:20.349Z,27.19
2022-09-23T15:01:32.696Z,30.19
2022-09-23T15:06:42.601Z,31.45
2022-09-23T15:11:45.450Z,31.82
2022-09-23T15:16:48.815Z,33.82
2022-09-23T15:21:52.909Z,35.68
2022-09-23T15:26:57.945Z,37.94
2022-09-23T15:32:01.132Z,39.72
2022-09-23T15:37:03.956Z,40.50
2022-09-23T15:42:10.332Z,41.26
2022-09-23T15:47:17.233Z,41.52
2022-09-23T15:52:22.909Z,42.73
2022-09-23T15:57:26.137Z,43.97
2022-09-23T16:02:28.981Z,45.21
2022-09-23T16:07:31.907Z,46.76
2022-09-23T16:12:34.677Z,46.70
2022-09-23T16:17:37.799Z,47.72
2022-09-23T16:22:40.564Z,47.73
2022-09-23T16:27:43.392Z,48.74
2022-09-23T16:32:46.186Z,49.66
2022-09-23T16:37:49.243Z,50.79
2022-09-23T16:42:54.302Z,52.18
2022-09-23T16:47:57.174Z,52.33
2022-09-23T16:53:00.008Z,52.51
2022-09-23T16:58:02.759Z,53.75
2022-09-23T17:03:24.574Z,55.57
2022-09-23T17:08:27.343Z,56.87
2022-09-23T17:13:31.103Z,57.20
2022-09-23T17:18:34.515Z,57.79
2022-09-23T17:23:37.640Z,58.86
2022-09-23T17:28:40.414Z,60.34
2022-09-23T17:33:43.325Z,60.49
2022-09-23T17:38:48.153Z,60.75
2022-09-23T17:43:57.221Z,61.11
2022-09-23T17:48:59.955Z,61.64
2022-09-23T17:54:02.728Z,61.98
2022-09-23T17:59:05.594Z,61.45
2022-09-23T18:04:08.459Z,61.22
2022-09-23T18:09:11.404Z,61.05
2022-09-23T18:14:16.551Z,60.81
2022-09-23T18:19:21.438Z,61.19
2022-09-23T18:24:33.156Z,61.41
2022-09-23T18:29:37.828Z,61.44
2022-09-23T18:34:40.658Z,61.30
2022-09-23T18:39:43.543Z,62.33
2022-09-23T18:44:47.140Z,61.97
2022-09-23T18:50:08.909Z,62.27
2022-09-23T18:55:12.696Z,62.73
2022-09-23T19:00:15.837Z,62.90
2022-09-23T19:05:19.133Z,63.23
2022-09-23T19:10:22.297Z,62.88
2022-09-23T19:15:25.095Z,63.01
2022-09-23T19:20:29.386Z,63.23
2022-09-23T19:25:32.230Z,63.09
2022-09-23T19:30:35.679Z,63.10
2022-09-23T19:35:53.580Z,63.46
2022-09-23T19:40:56.486Z,63.76
2022-09-23T19:45:59.227Z,63.74
2022-09-23T19:51:02.673Z,63.82
2022-09-23T19:56:06.022Z,64.44
2022-09-23T20:01:08.992Z,64.20
2022-09-23T20:06:11.871Z,64.84
2022-09-23T20:11:27.633Z,64.99
2022-09-23T20:16:34.352Z,64.98
2022-09-23T20:21:37.371Z,65.28
2022-09-23T20:26:58.918Z,65.55
2022-09-23T20:32:02.170Z,66.01
2022-09-23T20:37:06.086Z,65.88
2022-09-23T20:42:09.346Z,66.48
2022-09-23T20:47:14.176Z,66.86
2022-09-23T20:52:17.891Z,67.37
2022-09-23T20:57:20.874Z,67.80
2022-09-23T21:02:25.532Z,67.94
2022-09-23T21:07:28.382Z,68.24
2022-09-23T21:12:31.764Z,68.87
2022-09-23T21:17:34.662Z,69.24
2022-09-23T21:22:37.643Z,68.90
2022-09-23T21:27:40.516Z,68.63
2022-09-23T21:32:44.709Z,68.68
2022-09-23T21:37:47.580Z,69.19
2022-09-23T21:42:50.820Z,69.22
2022-09-23T21:47:54.693Z,69.80
2022-09-23T21:52:58.440Z,69.73
2022-09-23T21:58:01.273Z,70.13
2022-09-23T22:03:04.186Z,70.81
2022-09-23T22:08:09.140Z,71.35
2022-09-23T22:13:13.065Z,71.72
2022-09-23T22:18:19.354Z,71.51
2022-09-23T22:23:22.142Z,72.07
2022-09-23T22:28:44.093Z,73.07
2022-09-23T22:33:50.670Z,73.36
2022-09-23T22:38:59.066Z,73.06
2022-09-23T22:44:03.448Z,73.45
2022-09-23T22:49:07.568Z,73.69
2022-09-23T22:54:10.863Z,73.93
2022-09-23T22:59:13.990Z,73.59
2022-09-23T23:04:16.865Z,74.09
2022-09-23T23:09:19.698Z,74.35
2022-09-23T23:14:22.537Z,74.42
2022-09-23T23:19:26.116Z,74.61
2022-09-23T23:24:29.113Z,74.95
2022-09-23T23:29:31.994Z,74.61
2022-09-23T23:34:34.805Z,74.54
2022-09-23T23:39:37.594Z,74.54
2022-09-23T23:44:40.619Z,75.38
2022-09-23T23:49:43.366Z,75.42
2022-09-23T23:54:46.308Z,75.35
2022-09-23T23:59:49.599Z,75.51
